Terminal Aerodrome Forecast
Issued by NWS

Home | Current Version | Previous Version | Text Only | Print | Product List | Glossary On
Versions: 1 2 3 4 5 6 7 8 9 10 11 12 13
000
FTUS45 KTFX 010520
TAFGTF
TAF
KGTF 010520Z 0106/0206 14007KT P6SM SCT100 BKN150
     FM011100 19008KT P6SM SCT100 BKN150
     FM012100 23012G25KT P6SM SCT080 BKN120 PROB30 0121/0201
      VRB15G35KT -TSRA BKN070CB
     FM020200 28008KT P6SM SCT070 BKN110=

USA.gov is the U.S. government's official web portal to all federal, state and local government web resources and services.